createdAt,value
2023-09-20T00:01:52.879Z,2.22
2023-09-20T00:04:20.937Z,2.38
2023-09-20T00:06:47.457Z,2.28
2023-09-20T00:09:15.815Z,2.47
2023-09-20T00:11:44.481Z,2.30
2023-09-20T00:14:11.433Z,2.03
2023-09-20T00:16:37.920Z,2.13
2023-09-20T00:19:04.466Z,2.20
2023-09-20T00:21:30.964Z,2.30
2023-09-20T00:23:57.453Z,2.45
2023-09-20T00:26:24.617Z,1.88
2023-09-20T00:28:51.232Z,1.92
2023-09-20T00:31:17.890Z,2.08
2023-09-20T00:33:45.312Z,1.95
2023-09-20T00:36:21.616Z,2.05
2023-09-20T00:38:49.024Z,2.40
2023-09-20T00:41:16.445Z,2.10
2023-09-20T00:43:43.093Z,2.00
2023-09-20T00:46:10.810Z,2.17
2023-09-20T00:48:40.180Z,2.38
2023-09-20T00:51:07.624Z,1.98
2023-09-20T00:53:36.612Z,2.17
2023-09-20T00:56:06.078Z,2.10
2023-09-20T00:58:35.638Z,1.60
2023-09-20T01:01:05.175Z,1.88
2023-09-20T01:03:36.773Z,1.80
2023-09-20T01:06:09.891Z,1.70
2023-09-20T01:08:36.451Z,2.15
2023-09-20T01:11:03.035Z,2.00
2023-09-20T01:13:29.620Z,2.22
2023-09-20T01:15:56.209Z,2.25
2023-09-20T01:18:22.835Z,2.35
2023-09-20T01:20:49.443Z,2.35
2023-09-20T01:23:15.968Z,2.10
2023-09-20T01:25:44.574Z,1.92
2023-09-20T01:28:12.048Z,2.42
2023-09-20T01:30:40.436Z,2.20
2023-09-20T01:33:08.499Z,2.17
2023-09-20T01:35:36.097Z,1.83
2023-09-20T01:38:07.804Z,2.10
2023-09-20T01:40:35.839Z,2.13
2023-09-20T01:43:07.707Z,2.20
2023-09-20T01:45:38.294Z,1.67
2023-09-20T01:48:11.942Z,2.10
2023-09-20T01:50:39.510Z,1.98
2023-09-20T01:53:09.595Z,2.30
2023-09-20T01:55:38.408Z,2.47
2023-09-20T01:58:08.335Z,2.10
2023-09-20T02:00:41.327Z,2.42
2023-09-20T02:03:17.652Z,2.08
2023-09-20T02:05:45.763Z,2.13
2023-09-20T02:08:12.352Z,2.03
2023-09-20T02:10:39.497Z,2.05
2023-09-20T02:13:07.250Z,2.10
2023-09-20T02:15:41.973Z,2.15
2023-09-20T02:18:10.439Z,2.00
2023-09-20T02:20:40.586Z,2.08
2023-09-20T02:23:13.872Z,2.38
2023-09-20T02:25:42.210Z,2.13
2023-09-20T02:28:09.550Z,2.13
2023-09-20T02:30:39.491Z,2.47
2023-09-20T02:33:08.615Z,2.10
2023-09-20T02:35:37.868Z,1.80
2023-09-20T02:38:07.961Z,1.67
2023-09-20T02:40:36.356Z,2.05
2023-09-20T02:43:05.278Z,2.15
2023-09-20T02:45:34.575Z,1.77
2023-09-20T02:48:05.951Z,1.85
2023-09-20T02:50:33.167Z,1.90
2023-09-20T02:53:00.138Z,2.20
2023-09-20T02:55:28.240Z,1.75
2023-09-20T02:57:56.082Z,2.00
2023-09-20T03:00:31.263Z,2.00
2023-09-20T03:03:02.369Z,2.10
2023-09-20T03:05:34.288Z,1.95
2023-09-20T03:08:12.751Z,1.90
2023-09-20T03:10:42.732Z,2.15
2023-09-20T03:13:18.365Z,2.03
2023-09-20T03:15:46.075Z,2.13
2023-09-20T03:18:14.710Z,2.13
2023-09-20T03:20:45.034Z,1.98
2023-09-20T03:23:11.968Z,2.33
2023-09-20T03:25:38.513Z,1.83
2023-09-20T03:28:08.973Z,1.90
2023-09-20T03:30:37.625Z,2.00
2023-09-20T03:33:05.665Z,2.00
2023-09-20T03:35:33.581Z,1.98
2023-09-20T03:38:00.137Z,1.98
2023-09-20T03:40:29.434Z,2.17
2023-09-20T03:42:55.981Z,1.98
2023-09-20T03:45:25.137Z,1.77
2023-09-20T03:47:58.067Z,2.13
2023-09-20T03:50:25.374Z,1.90
2023-09-20T03:52:53.332Z,2.10
2023-09-20T03:55:20.911Z,1.75
2023-09-20T03:57:47.476Z,2.10
2023-09-20T04:00:18.032Z,1.73
2023-09-20T04:02:49.435Z,1.73
2023-09-20T04:05:26.895Z,1.90
2023-09-20T04:08:01.845Z,2.10
2023-09-20T04:10:28.928Z,2.15
2023-09-20T04:12:55.780Z,2.63
2023-09-20T04:15:22.280Z,2.30
2023-09-20T04:17:49.711Z,2.20
2023-09-20T04:20:16.422Z,2.05
2023-09-20T04:22:42.927Z,2.05
2023-09-20T04:25:12.270Z,2.75
2023-09-20T04:27:39.279Z,2.60
2023-09-20T04:30:09.069Z,2.88
2023-09-20T04:32:37.123Z,2.80
2023-09-20T04:35:05.550Z,2.30
2023-09-20T04:37:32.392Z,3.10
2023-09-20T04:39:58.922Z,3.10
2023-09-20T04:42:25.384Z,2.30
2023-09-20T04:44:52.471Z,2.80
2023-09-20T04:47:19.490Z,2.67
2023-09-20T04:49:46.386Z,2.50
2023-09-20T04:52:16.876Z,2.72
2023-09-20T04:54:45.374Z,2.85
2023-09-20T04:57:14.238Z,3.30
2023-09-20T04:59:43.597Z,2.38
2023-09-20T05:02:10.649Z,2.90
2023-09-20T05:04:37.556Z,2.28
2023-09-20T05:07:07.913Z,2.15
2023-09-20T05:09:35.701Z,1.83
2023-09-20T05:12:03.755Z,2.30
2023-09-20T05:14:30.753Z,2.35
2023-09-20T05:16:57.350Z,2.40
2023-09-20T05:19:26.749Z,2.13
2023-09-20T05:21:53.353Z,2.15
2023-09-20T05:24:19.932Z,2.22
2023-09-20T05:26:46.461Z,2.40
2023-09-20T05:29:13.038Z,2.70
2023-09-20T05:31:39.650Z,2.50
2023-09-20T05:34:06.657Z,2.22
2023-09-20T05:36:33.905Z,2.22
2023-09-20T05:39:00.546Z,2.83
2023-09-20T05:41:29.352Z,2.83
2023-09-20T05:43:56.256Z,2.60
2023-09-20T05:46:25.945Z,2.40
2023-09-20T05:48:53.687Z,2.45
2023-09-20T05:51:21.564Z,2.65
2023-09-20T05:53:52.119Z,2.63
2023-09-20T05:56:20.122Z,2.60
2023-09-20T05:58:47.004Z,1.85
2023-09-20T06:01:19.174Z,2.42
2023-09-20T06:03:47.838Z,2.13
2023-09-20T06:06:15.233Z,2.20
2023-09-20T06:08:43.678Z,1.80
2023-09-20T06:11:10.725Z,2.30
2023-09-20T06:13:39.071Z,2.30
2023-09-20T06:16:08.461Z,2.20
2023-09-20T06:18:37.685Z,2.55
2023-09-20T06:21:05.003Z,2.60
2023-09-20T06:23:32.896Z,2.10
2023-09-20T06:26:05.506Z,2.10
2023-09-20T06:28:32.671Z,2.50
2023-09-20T06:31:00.455Z,2.40
2023-09-20T06:33:27.117Z,2.38
2023-09-20T06:35:56.547Z,2.50
2023-09-20T06:38:25.224Z,3.17
2023-09-20T06:40:53.906Z,1.98
2023-09-20T06:43:21.006Z,1.75
2023-09-20T06:45:51.843Z,2.38
2023-09-20T06:48:26.527Z,2.17
2023-09-20T06:50:55.561Z,1.98
2023-09-20T06:53:25.039Z,1.80
2023-09-20T06:55:52.005Z,1.63
2023-09-20T06:58:20.768Z,3.00
2023-09-20T07:00:48.412Z,3.03
2023-09-20T07:03:15.382Z,1.73
2023-09-20T07:05:42.283Z,1.92
2023-09-20T07:08:09.581Z,1.90
2023-09-20T07:10:38.088Z,1.48
2023-09-20T07:13:07.376Z,1.48
2023-09-20T07:15:36.607Z,1.65
2023-09-20T07:18:13.538Z,1.70
2023-09-20T07:20:45.341Z,1.83
2023-09-20T07:23:16.723Z,1.45
2023-09-20T07:25:44.421Z,2.00
2023-09-20T07:28:11.370Z,1.60
2023-09-20T07:30:46.265Z,1.50
2023-09-20T07:33:25.576Z,1.70
2023-09-20T07:36:00.356Z,1.38
2023-09-20T07:38:29.904Z,1.50
2023-09-20T07:41:09.814Z,1.95
2023-09-20T07:43:40.183Z,1.63
2023-09-20T07:46:07.301Z,1.33
2023-09-20T07:48:34.871Z,1.23
2023-09-20T07:51:05.469Z,1.13
2023-09-20T07:53:32.401Z,1.17
2023-09-20T07:55:58.870Z,1.17
2023-09-20T07:58:25.570Z,1.38
2023-09-20T08:00:53.819Z,1.30
2023-09-20T08:03:22.165Z,1.10
2023-09-20T08:05:54.447Z,1.13
2023-09-20T08:08:24.150Z,0.98
2023-09-20T08:13:37.395Z,1.02
2023-09-20T08:16:10.022Z,1.00
2023-09-20T08:18:56.498Z,1.10
2023-09-20T08:21:23.259Z,1.13
2023-09-20T08:24:08.707Z,1.60
2023-09-20T08:26:54.019Z,1.05
2023-09-20T08:29:38.827Z,1.17
2023-09-20T08:32:23.625Z,0.80
2023-09-20T08:35:08.535Z,1.42
2023-09-20T08:37:53.695Z,0.93
2023-09-20T08:40:39.641Z,0.88
2023-09-20T08:43:25.482Z,1.08
2023-09-20T08:46:11.181Z,0.98
2023-09-20T08:49:01.129Z,0.90
2023-09-20T08:52:16.663Z,1.52
2023-09-20T08:55:02.660Z,1.20
2023-09-20T08:57:48.525Z,1.02
2023-09-20T09:00:29.323Z,1.33
2023-09-20T09:02:59.471Z,0.90
2023-09-20T09:05:29.380Z,1.38
2023-09-20T09:07:58.308Z,1.30
2023-09-20T09:10:25.491Z,1.10
2023-09-20T09:12:52.197Z,1.13
2023-09-20T09:15:19.166Z,1.33
2023-09-20T09:17:47.546Z,1.40
2023-09-20T09:20:22.322Z,1.25
2023-09-20T09:22:50.632Z,1.35
2023-09-20T09:25:19.791Z,1.05
2023-09-20T09:27:46.616Z,1.00
2023-09-20T09:30:15.700Z,1.25
2023-09-20T09:32:51.266Z,0.90
2023-09-20T09:35:27.741Z,0.93
2023-09-20T09:38:05.879Z,1.10
2023-09-20T09:40:32.565Z,1.00
2023-09-20T09:43:12.886Z,1.33
2023-09-20T09:45:39.738Z,1.38
2023-09-20T09:48:08.406Z,1.15
2023-09-20T09:50:39.730Z,1.10
2023-09-20T09:53:07.775Z,1.10
2023-09-20T09:55:34.850Z,1.20
2023-09-20T09:58:05.409Z,0.85
2023-09-20T10:00:34.438Z,0.95
2023-09-20T10:03:12.532Z,0.80
2023-09-20T10:05:43.902Z,1.30
2023-09-20T10:08:14.002Z,1.08
2023-09-20T10:10:42.858Z,0.88
2023-09-20T10:13:13.653Z,0.90
2023-09-20T10:15:40.641Z,0.85
2023-09-20T10:18:07.528Z,0.88
2023-09-20T10:21:06.216Z,1.20
2023-09-20T10:23:36.406Z,1.00
2023-09-20T10:26:03.192Z,1.30
2023-09-20T10:28:39.497Z,0.93
2023-09-20T10:31:06.270Z,0.90
2023-09-20T10:33:59.025Z,0.90
2023-09-20T10:36:28.456Z,0.93
2023-09-20T10:41:53.651Z,0.93
2023-09-20T10:44:32.156Z,0.95
2023-09-20T10:47:00.056Z,0.90
2023-09-20T10:49:49.838Z,0.70
2023-09-20T10:52:34.587Z,0.95
2023-09-20T10:55:25.631Z,0.90
2023-09-20T10:57:53.081Z,0.70
2023-09-20T11:00:26.625Z,0.73
2023-09-20T11:02:53.838Z,0.70
2023-09-20T11:05:21.081Z,0.90
2023-09-20T11:07:48.109Z,0.60
2023-09-20T11:10:18.364Z,0.80
2023-09-20T11:12:45.563Z,0.93
2023-09-20T11:15:14.480Z,0.73
2023-09-20T11:17:41.155Z,0.70
2023-09-20T11:20:09.120Z,0.90
2023-09-20T11:22:37.232Z,0.98
2023-09-20T11:25:05.872Z,0.80
2023-09-20T11:27:38.168Z,0.98
2023-09-20T11:30:09.989Z,0.70
2023-09-20T11:32:40.037Z,0.90
2023-09-20T11:35:08.250Z,0.80
2023-09-20T11:37:36.722Z,0.90
2023-09-20T11:40:06.008Z,1.42
2023-09-20T11:42:35.607Z,0.90
2023-09-20T11:47:59.458Z,1.10
2023-09-20T11:50:26.229Z,1.00
2023-09-20T11:52:54.585Z,0.80
2023-09-20T11:55:23.162Z,0.82
2023-09-20T11:57:49.998Z,0.90
2023-09-20T12:00:18.399Z,0.65
2023-09-20T12:02:46.116Z,0.70
2023-09-20T12:05:12.952Z,0.68
2023-09-20T12:07:39.668Z,0.82
2023-09-20T12:10:08.452Z,0.60
2023-09-20T12:12:35.641Z,0.73
2023-09-20T12:15:02.945Z,0.90
2023-09-20T12:17:30.688Z,0.77
2023-09-20T12:19:57.297Z,0.70
2023-09-20T12:22:23.796Z,0.80
2023-09-20T12:24:50.297Z,0.65
2023-09-20T12:27:18.759Z,0.65
2023-09-20T12:29:45.383Z,0.80
2023-09-20T12:32:12.403Z,0.70
2023-09-20T12:34:39.042Z,0.60
2023-09-20T12:37:06.626Z,0.60
2023-09-20T12:39:39.745Z,0.82
2023-09-20T12:44:35.232Z,0.57
2023-09-20T12:47:01.770Z,0.80
2023-09-20T12:49:28.245Z,0.80
2023-09-20T12:51:54.863Z,0.70
2023-09-20T12:54:21.409Z,0.70
2023-09-20T12:56:48.403Z,0.50
2023-09-20T12:59:15.084Z,0.80
2023-09-20T13:01:41.720Z,0.70
2023-09-20T13:04:08.622Z,0.50
2023-09-20T13:06:37.810Z,0.75
2023-09-20T13:09:04.554Z,0.70
2023-09-20T13:11:31.097Z,0.52
2023-09-20T13:13:57.689Z,0.85
2023-09-20T13:16:25.934Z,0.77
2023-09-20T13:18:52.544Z,0.65
2023-09-20T13:21:19.036Z,0.60
2023-09-20T13:23:45.816Z,0.60
2023-09-20T13:26:12.908Z,0.80
2023-09-20T13:28:39.794Z,0.65
2023-09-20T13:31:08.328Z,0.70
2023-09-20T13:33:35.102Z,0.88
2023-09-20T13:36:01.759Z,0.63
2023-09-20T13:38:28.475Z,0.82
2023-09-20T13:40:56.434Z,0.70
2023-09-20T13:43:23.110Z,0.70
2023-09-20T13:45:50.079Z,0.80
2023-09-20T13:48:16.806Z,0.82
2023-09-20T13:50:44.174Z,0.70
2023-09-20T13:53:11.279Z,0.90
2023-09-20T13:55:37.979Z,0.93
2023-09-20T13:58:04.688Z,0.90
2023-09-20T14:00:31.370Z,0.70
2023-09-20T14:02:58.829Z,0.95
2023-09-20T14:05:27.639Z,0.85
2023-09-20T14:07:57.220Z,0.75
2023-09-20T14:10:25.649Z,0.80
2023-09-20T14:12:52.674Z,0.93
2023-09-20T14:15:23.099Z,0.70
2023-09-20T14:17:53.012Z,0.70
2023-09-20T14:20:22.207Z,0.75
2023-09-20T14:22:54.268Z,0.70
2023-09-20T14:25:25.453Z,0.70
2023-09-20T14:27:52.903Z,0.68
2023-09-20T14:30:20.263Z,0.70
2023-09-20T14:32:49.199Z,0.90
2023-09-20T14:35:16.833Z,0.70
2023-09-20T14:37:48.937Z,0.70
2023-09-20T14:40:25.118Z,0.68
2023-09-20T14:42:57.549Z,0.70
2023-09-20T14:45:30.589Z,0.60
2023-09-20T14:48:00.687Z,0.60
2023-09-20T14:50:27.653Z,0.60
2023-09-20T14:52:54.994Z,0.70
2023-09-20T14:55:22.005Z,0.60
2023-09-20T14:57:52.998Z,0.75
2023-09-20T15:00:20.562Z,0.70
2023-09-20T15:02:48.266Z,0.90
2023-09-20T15:05:15.864Z,0.70
2023-09-20T15:07:49.568Z,0.68
2023-09-20T15:10:18.039Z,0.75
2023-09-20T15:12:49.589Z,1.50
2023-09-20T15:15:16.701Z,0.73
2023-09-20T15:17:44.668Z,0.68
2023-09-20T15:20:12.181Z,0.70
2023-09-20T15:22:38.827Z,0.60
2023-09-20T15:25:05.977Z,0.73
2023-09-20T15:27:32.711Z,0.65
2023-09-20T15:30:00.197Z,0.60
2023-09-20T15:32:27.552Z,0.52
2023-09-20T15:34:58.450Z,0.80
2023-09-20T15:37:27.451Z,0.60
2023-09-20T15:39:55.162Z,0.70
2023-09-20T15:42:23.146Z,0.50
2023-09-20T15:44:51.425Z,0.57
2023-09-20T15:47:18.994Z,0.80
2023-09-20T15:49:46.695Z,0.65
2023-09-20T15:52:15.600Z,0.68
2023-09-20T15:54:45.267Z,0.80
2023-09-20T15:57:13.027Z,0.80
2023-09-20T15:59:40.640Z,0.60
2023-09-20T16:02:08.098Z,0.90
2023-09-20T16:04:35.209Z,0.80
2023-09-20T16:07:04.082Z,0.70
2023-09-20T16:09:30.610Z,0.90
2023-09-20T16:11:57.365Z,0.70
2023-09-20T16:14:24.519Z,1.00
2023-09-20T16:16:51.268Z,1.05
2023-09-20T16:19:17.817Z,0.60
2023-09-20T16:21:44.391Z,0.70
2023-09-20T16:24:11.010Z,0.73
2023-09-20T16:26:38.920Z,0.63
2023-09-20T16:29:05.515Z,0.68
2023-09-20T16:31:32.580Z,0.73
2023-09-20T16:33:59.363Z,0.65
2023-09-20T16:36:26.216Z,0.70
2023-09-20T16:38:52.948Z,0.57
2023-09-20T16:41:19.641Z,0.28
2023-09-20T16:43:46.303Z,0.88
2023-09-20T16:46:12.841Z,0.70
2023-09-20T16:48:39.486Z,0.50
2023-09-20T16:51:07.043Z,0.50
2023-09-20T16:53:38.220Z,0.70
2023-09-20T16:56:05.561Z,0.90
2023-09-20T16:58:34.090Z,0.70
2023-09-20T17:01:00.703Z,0.85
2023-09-20T17:03:27.376Z,0.85
2023-09-20T17:05:54.050Z,1.13
2023-09-20T17:08:20.589Z,1.08
2023-09-20T17:10:47.256Z,0.93
2023-09-20T17:13:13.862Z,1.60
2023-09-20T17:15:40.312Z,1.13
2023-09-20T17:18:07.707Z,0.95
2023-09-20T17:20:34.542Z,0.98
2023-09-20T17:23:01.070Z,0.75
2023-09-20T17:25:27.735Z,0.80
2023-09-20T17:27:54.316Z,0.95
2023-09-20T17:30:22.081Z,0.77
2023-09-20T17:32:50.093Z,1.15
2023-09-20T17:35:17.427Z,1.10
2023-09-20T17:37:44.337Z,0.98
2023-09-20T17:40:11.689Z,0.95
2023-09-20T17:42:38.954Z,0.80
2023-09-20T17:45:06.646Z,1.10
2023-09-20T17:47:35.853Z,1.17
2023-09-20T17:50:02.583Z,0.93
2023-09-20T17:52:29.794Z,1.20
2023-09-20T17:54:56.308Z,1.10
2023-09-20T17:57:24.835Z,1.27
2023-09-20T17:59:52.536Z,1.20
2023-09-20T18:02:19.400Z,1.00
2023-09-20T18:04:47.328Z,1.20
2023-09-20T18:07:14.020Z,1.20
2023-09-20T18:09:40.527Z,1.00
2023-09-20T18:12:07.445Z,1.25
2023-09-20T18:14:33.989Z,1.20
2023-09-20T18:17:00.609Z,1.00
2023-09-20T18:19:27.884Z,1.10
2023-09-20T18:21:54.750Z,1.30
2023-09-20T18:24:21.342Z,1.40
2023-09-20T18:26:49.836Z,1.45
2023-09-20T18:29:17.601Z,1.50
2023-09-20T18:31:44.624Z,1.40
2023-09-20T18:34:11.229Z,1.52
2023-09-20T18:36:37.785Z,1.77
2023-09-20T18:39:04.671Z,1.33
2023-09-20T18:41:31.462Z,2.20
2023-09-20T18:43:59.945Z,2.20
2023-09-20T18:46:27.361Z,2.03
2023-09-20T18:48:54.715Z,1.75
2023-09-20T18:51:21.500Z,1.40
2023-09-20T18:53:48.563Z,1.63
2023-09-20T18:56:16.444Z,1.98
2023-09-20T18:58:43.518Z,1.60
2023-09-20T19:01:22.770Z,2.00
2023-09-20T19:03:50.180Z,1.80
2023-09-20T19:06:21.538Z,1.60
2023-09-20T19:08:50.813Z,1.90
2023-09-20T19:11:19.309Z,1.55
2023-09-20T19:13:46.880Z,1.40
2023-09-20T19:16:16.161Z,1.10
2023-09-20T19:18:44.464Z,1.42
2023-09-20T19:21:12.418Z,1.13
2023-09-20T19:23:39.075Z,1.35
2023-09-20T19:26:06.236Z,1.20
2023-09-20T19:28:33.282Z,1.33
2023-09-20T19:31:05.251Z,1.50
2023-09-20T19:33:32.152Z,1.30
2023-09-20T19:36:00.776Z,0.85
2023-09-20T19:38:27.483Z,1.15
2023-09-20T19:40:54.315Z,1.50
2023-09-20T19:43:20.835Z,1.67
2023-09-20T19:45:47.352Z,1.95
2023-09-20T19:48:14.211Z,2.00
2023-09-20T19:50:44.033Z,1.67
2023-09-20T19:55:41.053Z,1.55
2023-09-20T19:58:09.555Z,1.30
2023-09-20T20:00:39.407Z,1.30
2023-09-20T20:03:07.965Z,1.20
2023-09-20T20:05:34.625Z,1.35
2023-09-20T20:08:07.310Z,1.30
2023-09-20T20:10:41.374Z,1.25
2023-09-20T20:13:08.148Z,1.30
2023-09-20T20:15:34.790Z,1.40
2023-09-20T20:18:02.877Z,1.23
2023-09-20T20:20:31.987Z,1.17
2023-09-20T20:23:00.476Z,1.02
2023-09-20T20:25:39.638Z,1.08
2023-09-20T20:28:13.102Z,0.80
2023-09-20T20:30:40.430Z,0.70
2023-09-20T20:33:06.998Z,0.73
2023-09-20T20:35:33.720Z,1.10
2023-09-20T20:38:00.282Z,1.17
2023-09-20T20:40:26.872Z,0.80
2023-09-20T20:42:54.217Z,0.98
2023-09-20T20:45:21.412Z,0.90
2023-09-20T20:47:50.914Z,0.88
2023-09-20T20:50:26.264Z,0.90
2023-09-20T20:52:54.180Z,0.85
2023-09-20T20:55:23.854Z,0.90
2023-09-20T20:57:51.182Z,1.00
2023-09-20T21:00:25.912Z,0.80
2023-09-20T21:02:54.121Z,1.10
2023-09-20T21:05:25.520Z,0.90
2023-09-20T21:07:53.194Z,0.88
2023-09-20T21:10:20.788Z,1.02
2023-09-20T21:12:49.439Z,0.93
2023-09-20T21:15:17.019Z,0.75
2023-09-20T21:17:45.029Z,0.80
2023-09-20T21:20:21.438Z,1.10
2023-09-20T21:22:53.507Z,1.08
2023-09-20T21:25:24.329Z,1.00
2023-09-20T21:27:58.380Z,0.68
2023-09-20T21:30:26.835Z,1.10
2023-09-20T21:32:56.456Z,1.33
2023-09-20T21:35:25.734Z,1.02
2023-09-20T21:37:56.129Z,0.90
2023-09-20T21:40:23.912Z,1.02
2023-09-20T21:42:51.389Z,0.90
2023-09-20T21:45:19.639Z,0.80
2023-09-20T21:47:56.485Z,1.00
2023-09-20T21:50:24.928Z,0.93
2023-09-20T21:52:55.851Z,0.93
2023-09-20T21:55:23.866Z,0.93
2023-09-20T21:57:53.740Z,0.90
2023-09-20T22:00:21.273Z,0.70
2023-09-20T22:02:53.704Z,0.85
2023-09-20T22:05:24.280Z,0.70
2023-09-20T22:07:55.093Z,0.90
2023-09-20T22:10:39.075Z,1.00
2023-09-20T22:13:08.236Z,1.00
2023-09-20T22:15:36.632Z,0.90
2023-09-20T22:18:11.401Z,0.90
2023-09-20T22:20:39.380Z,0.68
2023-09-20T22:23:09.129Z,1.23
2023-09-20T22:28:02.221Z,0.90
2023-09-20T22:30:28.821Z,0.95
2023-09-20T22:32:55.415Z,0.80
2023-09-20T22:35:22.280Z,0.93
2023-09-20T22:37:50.838Z,0.80
2023-09-20T22:40:18.984Z,0.90
2023-09-20T22:42:51.083Z,0.60
2023-09-20T22:45:23.511Z,0.90
2023-09-20T22:47:54.979Z,1.15
2023-09-20T22:50:24.566Z,0.73
2023-09-20T22:52:53.908Z,0.90
2023-09-20T22:55:21.458Z,1.20
2023-09-20T22:57:48.313Z,0.93
2023-09-20T23:00:22.775Z,0.82
2023-09-20T23:02:50.784Z,1.00
2023-09-20T23:05:19.589Z,0.88
2023-09-20T23:07:54.936Z,0.90
2023-09-20T23:10:25.009Z,1.40
2023-09-20T23:12:53.693Z,0.90
2023-09-20T23:15:21.714Z,1.00
2023-09-20T23:17:52.304Z,1.27
2023-09-20T23:20:38.651Z,0.80
2023-09-20T23:23:06.521Z,1.00
2023-09-20T23:25:37.399Z,1.02
2023-09-20T23:28:12.747Z,0.88
2023-09-20T23:30:41.418Z,1.00
2023-09-20T23:33:09.920Z,0.95
2023-09-20T23:35:40.557Z,1.17
2023-09-20T23:38:14.254Z,1.10
2023-09-20T23:40:44.159Z,1.00
2023-09-20T23:45:38.665Z,1.10
2023-09-20T23:48:05.380Z,1.00
2023-09-20T23:50:31.955Z,1.08
2023-09-20T23:52:58.443Z,1.02
2023-09-20T23:55:25.106Z,1.00
2023-09-20T23:57:52.148Z,1.00
